createdAt,value
2019-02-14T00:01:35.426Z,2.90
2019-02-14T00:04:22.574Z,2.90
2019-02-14T00:07:09.678Z,2.80
2019-02-14T00:09:56.574Z,2.80
2019-02-14T00:12:43.530Z,2.80
2019-02-14T00:15:30.267Z,2.70
2019-02-14T00:18:17.304Z,2.70
2019-02-14T00:21:04.230Z,2.60
2019-02-14T00:23:50.918Z,2.50
2019-02-14T00:26:37.598Z,2.50
2019-02-14T00:29:24.354Z,2.50
2019-02-14T00:32:10.998Z,2.40
2019-02-14T00:34:57.724Z,2.40
2019-02-14T00:37:44.662Z,2.30
2019-02-14T00:40:32.033Z,2.30
2019-02-14T00:43:18.926Z,2.20
2019-02-14T00:46:05.568Z,2.20
2019-02-14T00:48:52.225Z,2.20
2019-02-14T00:51:38.902Z,2.20
2019-02-14T00:54:26.266Z,2.30
2019-02-14T00:57:12.953Z,2.30
2019-02-14T01:00:00.302Z,2.30
2019-02-14T01:02:47.868Z,2.20
2019-02-14T01:05:34.922Z,2.20
2019-02-14T01:08:22.118Z,2.20
2019-02-14T01:11:08.864Z,2.10
2019-02-14T01:13:55.750Z,2.10
2019-02-14T01:16:42.736Z,2.10
2019-02-14T01:19:29.609Z,2.10
2019-02-14T01:22:16.477Z,2.10
2019-02-14T01:25:03.323Z,2.10
2019-02-14T01:27:50.313Z,2.20
2019-02-14T01:30:37.322Z,2.20
2019-02-14T01:33:24.558Z,2.20
2019-02-14T01:36:11.691Z,2.30
2019-02-14T01:38:59.190Z,2.30
2019-02-14T01:41:46.091Z,2.40
2019-02-14T01:44:33.059Z,2.50
2019-02-14T01:47:20.122Z,2.50
2019-02-14T01:50:08.742Z,2.40
2019-02-14T01:52:55.853Z,2.40
2019-02-14T01:55:42.665Z,2.30
2019-02-14T01:58:29.577Z,2.30
2019-02-14T02:01:16.232Z,2.30
2019-02-14T02:04:02.975Z,2.20
2019-02-14T02:06:49.802Z,2.10
2019-02-14T02:09:36.465Z,2.20
2019-02-14T02:12:23.245Z,2.20
2019-02-14T02:15:11.370Z,2.10
2019-02-14T02:17:58.572Z,2.10
2019-02-14T02:20:45.529Z,2.00
2019-02-14T02:23:32.418Z,2.00
2019-02-14T02:26:19.422Z,2.10
2019-02-14T02:29:06.094Z,2.10
2019-02-14T02:31:53.272Z,2.20
2019-02-14T02:34:40.784Z,2.20
2019-02-14T02:37:27.345Z,2.30
2019-02-14T02:40:14.486Z,2.30
2019-02-14T02:43:01.518Z,2.40
2019-02-14T02:45:48.214Z,2.40
2019-02-14T02:48:34.902Z,2.50
2019-02-14T02:51:22.094Z,2.50
2019-02-14T02:54:09.282Z,2.50
2019-02-14T02:56:56.023Z,2.60
2019-02-14T02:59:43.336Z,2.60
2019-02-14T03:02:30.030Z,2.60
2019-02-14T03:05:16.960Z,2.60
2019-02-14T03:08:03.723Z,2.60
2019-02-14T03:10:50.495Z,2.60
2019-02-14T03:13:37.618Z,2.60
2019-02-14T03:16:24.655Z,2.60
2019-02-14T03:19:11.564Z,2.60
2019-02-14T03:21:59.050Z,2.60
2019-02-14T03:24:45.691Z,2.60
2019-02-14T03:27:32.458Z,2.60
2019-02-14T03:30:19.119Z,2.60
2019-02-14T03:33:06.358Z,2.50
2019-02-14T03:35:53.510Z,2.40
2019-02-14T03:38:40.326Z,2.40
2019-02-14T03:41:27.270Z,2.40
2019-02-14T03:44:14.134Z,2.30
2019-02-14T03:47:01.279Z,2.30
2019-02-14T03:49:48.019Z,2.30
2019-02-14T03:52:35.650Z,2.30
2019-02-14T03:55:22.610Z,2.20
2019-02-14T03:58:09.195Z,2.20
2019-02-14T04:00:55.947Z,2.20
2019-02-14T04:03:42.719Z,2.20
2019-02-14T04:06:29.384Z,2.20
2019-02-14T04:09:16.473Z,2.20
2019-02-14T04:12:03.310Z,2.20
2019-02-14T04:14:50.098Z,2.20
2019-02-14T04:17:36.787Z,2.20
2019-02-14T04:20:24.022Z,2.20
2019-02-14T04:23:11.058Z,2.20
2019-02-14T04:25:57.978Z,2.20
2019-02-14T04:28:44.974Z,2.20
2019-02-14T04:31:32.040Z,2.20
2019-02-14T04:34:19.398Z,2.20
2019-02-14T04:37:06.282Z,2.20
2019-02-14T04:39:53.337Z,2.20
2019-02-14T04:42:39.955Z,2.20
2019-02-14T04:45:26.922Z,2.20
2019-02-14T04:48:13.637Z,2.20
2019-02-14T04:51:01.058Z,2.20
2019-02-14T04:53:48.038Z,2.20
2019-02-14T04:56:35.146Z,2.10
2019-02-14T04:59:22.274Z,2.10
2019-02-14T05:02:09.009Z,2.10
2019-02-14T05:04:55.834Z,2.10
2019-02-14T05:07:42.521Z,2.10
2019-02-14T05:10:31.454Z,2.00
2019-02-14T05:13:18.636Z,1.90
2019-02-14T05:16:05.989Z,1.90
2019-02-14T05:18:53.235Z,1.80
2019-02-14T05:21:39.849Z,1.70
2019-02-14T05:24:26.670Z,1.70
2019-02-14T05:27:13.421Z,1.60
2019-02-14T05:30:00.403Z,1.70
2019-02-14T05:32:47.635Z,1.60
2019-02-14T05:35:34.335Z,1.60
2019-02-14T05:38:40.326Z,1.60
2019-02-14T05:41:27.170Z,1.70
2019-02-14T05:44:13.889Z,1.60
2019-02-14T05:47:00.976Z,1.60
2019-02-14T05:49:48.362Z,1.60
2019-02-14T05:52:35.417Z,1.60
2019-02-14T05:55:22.475Z,1.60
2019-02-14T05:58:09.175Z,1.50
2019-02-14T06:00:55.941Z,1.50
2019-02-14T06:03:43.038Z,1.50
2019-02-14T06:06:29.990Z,1.50
2019-02-14T06:09:17.222Z,1.40
2019-02-14T06:12:03.907Z,1.30
2019-02-14T06:14:50.651Z,1.30
2019-02-14T06:17:37.943Z,1.30
2019-02-14T06:20:24.659Z,1.10
2019-02-14T06:23:11.347Z,1.20
2019-02-14T06:25:58.390Z,1.20
2019-02-14T06:28:45.515Z,1.10
2019-02-14T06:31:32.374Z,1.10
2019-02-14T06:34:19.707Z,1.10
2019-02-14T06:37:09.636Z,1.00
2019-02-14T06:39:55.250Z,1.00
2019-02-14T06:42:41.860Z,1.10
2019-02-14T06:45:28.867Z,1.10
2019-02-14T06:48:15.833Z,1.10
2019-02-14T06:51:02.598Z,1.10
2019-02-14T06:53:50.134Z,1.10
2019-02-14T06:56:36.955Z,1.10
2019-02-14T06:59:23.953Z,1.20
2019-02-14T07:02:11.539Z,1.20
2019-02-14T07:05:17.456Z,1.30
2019-02-14T10:06:11.553Z,9.60
2019-02-14T10:09:00.607Z,11.80
2019-02-14T10:11:47.980Z,12.20
2019-02-14T10:14:35.451Z,12.10
2019-02-14T10:17:22.702Z,12.40
2019-02-14T10:20:19.111Z,13.50
2019-02-14T10:23:05.927Z,14.10
2019-02-14T10:25:53.407Z,14.90
2019-02-14T10:28:40.315Z,15.20
2019-02-14T10:31:27.634Z,15.80
2019-02-14T10:34:14.841Z,16.70
2019-02-14T10:37:01.518Z,17.30
2019-02-14T10:39:50.025Z,17.50
2019-02-14T10:42:56.223Z,17.70
2019-02-14T10:45:43.410Z,18.10
2019-02-14T10:48:30.395Z,18.10
2019-02-14T10:51:16.986Z,18.20
2019-02-14T10:54:23.807Z,18.20
2019-02-14T10:57:12.060Z,17.90
2019-02-14T11:00:00.390Z,18.50
2019-02-14T11:02:48.160Z,18.80
2019-02-14T11:05:35.973Z,19.30
2019-02-14T11:08:31.367Z,18.80
2019-02-14T11:11:13.675Z,19.60
2019-02-14T11:14:01.503Z,19.70
2019-02-14T11:16:49.271Z,19.30
2019-02-14T11:19:36.748Z,18.60
2019-02-14T11:22:25.075Z,18.20
2019-02-14T11:25:16.104Z,17.80
2019-02-14T11:28:03.562Z,17.70
2019-02-14T11:30:51.382Z,17.00
2019-02-14T11:33:40.865Z,17.10
2019-02-14T11:36:29.275Z,17.20
2019-02-14T11:39:17.356Z,17.50
2019-02-14T11:42:05.634Z,18.20
2019-02-14T11:44:53.586Z,18.20
2019-02-14T11:47:41.556Z,18.10
2019-02-14T11:50:29.591Z,17.90
2019-02-14T11:53:17.822Z,17.50
2019-02-14T11:56:05.938Z,17.50
2019-02-14T11:58:54.286Z,17.30
2019-02-14T12:01:42.020Z,16.90
2019-02-14T12:04:30.374Z,16.50
2019-02-14T12:07:18.133Z,16.00
2019-02-14T12:10:13.537Z,15.80
2019-02-14T12:12:59.055Z,15.80
2019-02-14T12:15:47.372Z,15.90
2019-02-14T12:18:35.742Z,16.20
2019-02-14T12:21:24.094Z,15.90
2019-02-14T12:24:11.998Z,15.30
2019-02-14T12:26:59.594Z,14.90
2019-02-14T12:29:46.671Z,14.40
2019-02-14T12:32:33.907Z,14.00
2019-02-14T12:35:21.280Z,13.80
2019-02-14T12:38:08.178Z,13.80
2019-02-14T12:40:54.907Z,13.80
2019-02-14T12:43:24.029Z,14.00
2019-02-14T12:45:53.127Z,14.40
2019-02-14T12:48:22.296Z,15.30
2019-02-14T12:50:51.464Z,16.10
2019-02-14T12:53:21.139Z,16.40
2019-02-14T12:55:50.817Z,16.70
2019-02-14T12:58:20.438Z,17.00
2019-02-14T13:00:49.930Z,17.30
2019-02-14T13:03:19.444Z,17.30
2019-02-14T13:05:48.945Z,17.50
2019-02-14T13:08:18.530Z,17.20
2019-02-14T13:10:48.031Z,16.50
2019-02-14T13:13:17.563Z,15.80
2019-02-14T13:15:47.128Z,15.30
2019-02-14T13:18:16.879Z,14.70
2019-02-14T13:20:46.388Z,14.30
2019-02-14T13:23:16.063Z,14.00
2019-02-14T13:25:45.857Z,13.70
2019-02-14T13:28:15.451Z,13.50
2019-02-14T13:30:45.028Z,13.40
2019-02-14T13:33:14.702Z,13.20
2019-02-14T13:35:44.355Z,13.00
2019-02-14T13:38:33.243Z,12.90
2019-02-14T13:41:02.948Z,12.80
2019-02-14T13:43:32.517Z,12.70
2019-02-14T13:46:02.040Z,12.60
2019-02-14T13:48:31.867Z,12.50
2019-02-14T13:51:01.363Z,12.40
2019-02-14T13:53:31.038Z,12.40
2019-02-14T13:56:00.541Z,12.40
2019-02-14T13:58:30.019Z,12.30
2019-02-14T14:00:59.877Z,12.20
2019-02-14T14:03:29.453Z,12.10
2019-02-14T14:05:59.069Z,12.10
2019-02-14T14:08:28.572Z,12.10
2019-02-14T14:10:58.173Z,12.00
2019-02-14T14:13:27.740Z,12.00
2019-02-14T14:15:57.273Z,12.00
2019-02-14T14:18:26.910Z,12.00
2019-02-14T14:20:56.438Z,12.00
2019-02-14T14:23:25.957Z,12.00
2019-02-14T14:25:55.667Z,12.00
2019-02-14T14:28:25.162Z,11.90
2019-02-14T14:30:54.782Z,11.90
2019-02-14T14:33:24.346Z,11.90
2019-02-14T14:35:53.879Z,11.90
2019-02-14T14:38:23.466Z,11.90
2019-02-14T14:40:53.172Z,11.90
2019-02-14T14:43:24.583Z,11.90
2019-02-14T14:45:55.778Z,11.90
2019-02-14T14:48:26.901Z,11.90
2019-02-14T14:50:56.431Z,11.80
2019-02-14T14:53:25.914Z,11.70
2019-02-14T14:55:55.619Z,11.70
2019-02-14T14:58:25.152Z,11.60
2019-02-14T15:00:54.798Z,11.60
2019-02-14T15:03:24.458Z,11.60
2019-02-14T15:05:54.087Z,11.70
2019-02-14T15:08:23.568Z,11.60
2019-02-14T15:10:53.098Z,11.60
2019-02-14T15:13:22.613Z,11.60
2019-02-14T15:15:52.196Z,11.50
2019-02-14T15:18:21.821Z,11.50
2019-02-14T15:20:51.392Z,11.50
2019-02-14T15:23:20.977Z,11.40
2019-02-14T15:25:50.473Z,11.40
2019-02-14T15:28:20.139Z,11.30
2019-02-14T15:30:49.635Z,11.20
2019-02-14T15:33:19.151Z,11.10
2019-02-14T15:35:48.823Z,11.00
2019-02-14T15:38:18.360Z,10.90
2019-02-14T15:40:48.011Z,10.80
2019-02-14T15:43:17.560Z,10.70
2019-02-14T15:45:47.074Z,10.60
2019-02-14T15:48:16.686Z,10.50
2019-02-14T15:50:46.401Z,10.40
2019-02-14T15:53:16.952Z,10.30
2019-02-14T15:55:45.763Z,10.20
2019-02-14T15:58:14.579Z,10.20
2019-02-14T16:00:43.267Z,10.10
2019-02-14T16:03:11.903Z,10.00
2019-02-14T16:05:42.537Z,10.00
2019-02-14T16:08:10.947Z,10.00
2019-02-14T16:10:39.583Z,9.90
2019-02-14T16:13:09.841Z,9.90
2019-02-14T16:15:38.690Z,9.80
2019-02-14T16:18:07.355Z,9.70
2019-02-14T16:20:36.041Z,9.60
2019-02-14T16:23:06.438Z,9.50
2019-02-14T16:25:35.197Z,9.40
2019-02-14T16:28:03.878Z,9.20
2019-02-14T16:30:33.350Z,9.10
2019-02-14T16:33:02.122Z,9.00
2019-02-14T16:35:30.891Z,8.90
2019-02-14T16:37:59.602Z,8.70
2019-02-14T16:40:36.471Z,8.60
2019-02-14T16:42:58.555Z,8.40
2019-02-14T16:45:27.287Z,8.30
2019-02-14T16:47:55.902Z,8.20
2019-02-14T16:50:27.459Z,8.00
2019-02-14T16:53:15.415Z,7.90
2019-02-14T16:55:44.124Z,7.90
2019-02-14T16:58:12.905Z,8.00
2019-02-14T17:00:41.600Z,8.00
2019-02-14T17:03:10.220Z,8.00
2019-02-14T17:05:38.932Z,7.90
2019-02-14T17:08:07.533Z,7.90
2019-02-14T17:10:37.248Z,7.70
2019-02-14T17:13:06.087Z,7.60
2019-02-14T17:15:34.814Z,7.40
2019-02-14T17:18:03.435Z,7.30
2019-02-14T17:20:32.065Z,7.20
2019-02-14T17:23:00.751Z,7.00
2019-02-14T17:25:29.474Z,6.90
2019-02-14T17:27:58.099Z,6.70
2019-02-14T17:30:27.005Z,6.50
2019-02-14T17:32:55.721Z,6.50
2019-02-14T17:35:24.338Z,6.30
2019-02-14T17:37:52.992Z,6.20
2019-02-14T17:40:21.825Z,6.10
2019-02-14T17:42:52.586Z,6.10
2019-02-14T17:45:22.374Z,6.00
2019-02-14T17:47:51.959Z,5.90
2019-02-14T17:50:21.450Z,5.80
2019-02-14T17:52:51.125Z,5.80
2019-02-14T17:55:20.680Z,5.80
2019-02-14T17:57:50.267Z,5.70
2019-02-14T18:00:19.978Z,5.70
2019-02-14T18:02:49.554Z,5.60
2019-02-14T18:05:19.060Z,5.50
2019-02-14T18:07:48.724Z,5.40
2019-02-14T18:10:18.249Z,5.30
2019-02-14T18:12:47.827Z,5.20
2019-02-14T18:15:17.622Z,5.10
2019-02-14T18:17:47.218Z,5.10
2019-02-14T18:20:16.819Z,5.00
2019-02-14T18:22:46.397Z,4.90
2019-02-14T18:25:16.133Z,4.80
2019-02-14T18:27:45.840Z,4.80
2019-02-14T18:30:15.525Z,4.70
2019-02-14T18:32:46.772Z,4.70
2019-02-14T18:35:16.391Z,4.60
2019-02-14T18:37:45.962Z,4.60
2019-02-14T18:40:34.923Z,4.50
2019-02-14T18:43:04.426Z,4.40
2019-02-14T18:45:34.260Z,4.40
2019-02-14T18:48:03.982Z,4.40
2019-02-14T18:50:33.639Z,4.40
2019-02-14T18:53:03.427Z,4.40
2019-02-14T18:55:33.014Z,4.50
2019-02-14T18:58:02.529Z,4.50
2019-02-14T19:00:32.132Z,4.50
2019-02-14T19:03:01.727Z,4.50
2019-02-14T19:05:31.331Z,4.40
2019-02-14T19:08:00.890Z,4.30
2019-02-14T19:10:30.615Z,4.30
2019-02-14T19:13:00.229Z,4.30
2019-02-14T19:15:29.823Z,4.30
2019-02-14T19:17:59.327Z,4.40
2019-02-14T19:20:29.011Z,4.50
2019-02-14T19:22:58.839Z,4.50
2019-02-14T19:25:29.555Z,4.50
2019-02-14T19:27:59.483Z,4.40
2019-02-14T19:30:28.965Z,4.30
2019-02-14T19:32:58.614Z,4.30
2019-02-14T19:35:28.459Z,4.20
2019-02-14T19:37:57.974Z,4.20
2019-02-14T19:40:27.669Z,4.30
2019-02-14T19:42:57.499Z,4.20
2019-02-14T19:45:36.345Z,4.30
2019-02-14T19:47:58.561Z,4.30
2019-02-14T19:50:28.103Z,4.30
2019-02-14T19:52:57.663Z,4.20
2019-02-14T19:55:27.230Z,4.20
2019-02-14T19:57:56.877Z,4.20
2019-02-14T20:00:26.535Z,4.20
2019-02-14T20:02:56.386Z,4.20
2019-02-14T20:05:26.035Z,4.00
2019-02-14T20:07:55.915Z,4.00
2019-02-14T20:10:25.571Z,3.90
2019-02-14T20:12:55.099Z,3.80
2019-02-14T20:15:24.670Z,3.80
2019-02-14T20:17:54.271Z,3.70
2019-02-14T20:20:23.773Z,3.60
2019-02-14T20:22:53.363Z,3.50
2019-02-14T20:25:28.236Z,3.40
2019-02-14T20:27:57.803Z,3.40
2019-02-14T20:30:50.827Z,3.30
2019-02-14T20:33:20.484Z,3.30
2019-02-14T20:35:50.183Z,3.20
2019-02-14T20:38:19.822Z,3.20
2019-02-14T20:40:49.382Z,3.10
2019-02-14T20:43:18.938Z,3.00
2019-02-14T20:45:48.628Z,3.00
2019-02-14T20:48:18.255Z,2.90
2019-02-14T20:50:47.183Z,2.80
2019-02-14T20:53:15.955Z,2.80
2019-02-14T20:55:44.706Z,2.70
2019-02-14T20:58:13.317Z,2.70
2019-02-14T21:00:42.040Z,2.50
2019-02-14T21:03:10.875Z,2.50
2019-02-14T21:05:39.689Z,2.50
2019-02-14T21:08:08.288Z,2.50
2019-02-14T21:10:36.942Z,2.60
2019-02-14T21:13:05.623Z,2.70
2019-02-14T21:15:34.346Z,2.80
2019-02-14T21:18:03.802Z,2.90
2019-02-14T21:20:33.479Z,3.00
2019-02-14T21:23:03.033Z,3.10
2019-02-14T21:25:37.640Z,3.20
2019-02-14T21:28:06.383Z,3.30
2019-02-14T21:30:36.315Z,3.50
2019-02-14T21:33:05.273Z,3.60
2019-02-14T21:35:33.936Z,3.60
2019-02-14T21:38:02.667Z,3.70
2019-02-14T21:40:50.805Z,3.70
2019-02-14T21:43:19.505Z,3.80
2019-02-14T21:45:48.293Z,3.90
2019-02-14T21:48:36.378Z,3.90
2019-02-14T21:51:05.237Z,4.00
2019-02-14T21:53:34.018Z,4.00
2019-02-14T21:56:02.841Z,4.00
2019-02-14T21:58:32.627Z,4.00
2019-02-14T22:01:02.318Z,4.10
2019-02-14T22:03:31.052Z,4.10
2019-02-14T22:05:59.787Z,4.10
2019-02-14T22:08:28.648Z,4.10
2019-02-14T22:10:57.423Z,4.20
2019-02-14T22:13:27.186Z,4.20
2019-02-14T22:15:56.094Z,4.30
2019-02-14T22:18:44.126Z,4.30
2019-02-14T22:21:13.042Z,4.30
2019-02-14T22:23:41.685Z,4.30
2019-02-14T22:26:10.534Z,4.20
2019-02-14T22:28:39.266Z,4.10
2019-02-14T22:31:08.043Z,4.10
2019-02-14T22:33:36.851Z,4.10
2019-02-14T22:36:05.518Z,4.10
2019-02-14T22:38:34.463Z,4.10
2019-02-14T22:41:03.290Z,4.00
2019-02-14T22:43:32.026Z,4.00
2019-02-14T22:46:00.955Z,4.00
2019-02-14T22:48:29.683Z,4.00
2019-02-14T22:50:58.287Z,3.90
2019-02-14T22:53:46.361Z,3.90
2019-02-14T22:56:34.364Z,3.90
2019-02-14T22:59:03.066Z,3.90
2019-02-14T23:01:31.747Z,3.80
2019-02-14T23:04:00.467Z,3.80
2019-02-14T23:06:29.491Z,3.70
2019-02-14T23:08:58.122Z,3.70
2019-02-14T23:11:26.794Z,3.70
2019-02-14T23:13:56.062Z,3.60
2019-02-14T23:16:44.001Z,3.60
2019-02-14T23:19:12.793Z,3.60
2019-02-14T23:21:41.478Z,3.60
2019-02-14T23:24:10.271Z,3.60
2019-02-14T23:26:38.867Z,3.60
2019-02-14T23:29:07.506Z,3.60
2019-02-14T23:31:36.238Z,3.70
2019-02-14T23:34:04.864Z,3.70
2019-02-14T23:36:33.564Z,3.60
2019-02-14T23:39:04.674Z,3.70
2019-02-14T23:41:33.423Z,3.60
2019-02-14T23:44:02.126Z,3.50
2019-02-14T23:46:31.602Z,3.40
2019-02-14T23:49:01.146Z,3.40
2019-02-14T23:51:29.983Z,3.40
2019-02-14T23:53:58.738Z,3.50
2019-02-14T23:56:27.378Z,3.60
2019-02-14T23:58:55.985Z,3.50
